Time;durP1;ratioP1;P1;durP2;ratioP2;P2;SDS_P1;SDS_P2;PMS_P1;PMS_P2;Temp;Humidity;BMP_temperature;BMP_pressure;BME280_temperature;BME280_humidity;BME280_pressure;Samples;Min_cycle;Max_cycle;Signal;HPM_P1;HPM_P2
2021/12/14 00:00:18;;;;;;;6.53;3.70;;;8.40;99.90;;;;;;5083669;28;20048;-78
2021/12/14 00:02:45;;;;;;;9.25;5.75;;;8.40;99.90;;;;;;5090512;28;20036;-77
2021/12/14 00:05:13;;;;;;;7.10;4.72;;;8.50;99.90;;;;;;5081131;28;20453;-79
2021/12/14 00:07:41;;;;;;;8.43;5.35;;;8.50;99.90;;;;;;5092239;28;20522;-80
2021/12/14 00:10:17;;;;;;;6.35;3.78;;;8.00;99.90;;;;;;5075045;28;20105;-80
2021/12/14 00:13:01;;;;;;;7.03;4.93;;;8.50;99.90;;;;;;5083179;28;20035;-77
2021/12/14 00:15:26;;;;;;;6.22;4.40;;;8.50;99.90;;;;;;5091734;28;20044;-80
2021/12/14 00:17:56;;;;;;;7.10;4.18;;;8.50;99.90;;;;;;5091519;28;20047;-78
2021/12/14 00:20:51;;;;;;;5.35;3.60;;;8.50;99.90;;;;;;5091412;28;20043;-78
2021/12/14 00:25:51;;;;;;;8.45;4.93;;;8.50;99.90;;;;;;5079696;28;20051;-77
2021/12/14 00:28:27;;;;;;;6.90;4.00;;;8.50;99.90;;;;;;5084270;28;20044;-79
2021/12/14 00:30:56;;;;;;;6.10;4.55;;;8.50;99.90;;;;;;5087079;28;20063;-80
2021/12/14 00:33:27;;;;;;;10.88;5.15;;;8.50;99.90;;;;;;5088552;28;20117;-78
2021/12/14 00:35:53;;;;;;;6.82;4.07;;;8.50;99.90;;;;;;5058631;28;20069;-80
2021/12/14 00:38:21;;;;;;;9.73;5.43;;;8.50;99.90;;;;;;5057667;28;20075;-79
2021/12/14 00:40:55;;;;;;;7.28;4.95;;;8.50;99.90;;;;;;5085633;28;20047;-79
2021/12/14 00:43:27;;;;;;;6.15;4.10;;;8.50;99.90;;;;;;5072090;28;20044;-80
2021/12/14 00:45:54;;;;;;;9.07;4.18;;;8.50;99.90;;;;;;5082212;28;20071;-78
2021/12/14 00:48:21;;;;;;;8.40;4.75;;;8.50;99.90;;;;;;5085820;28;20047;-76
2021/12/14 00:50:53;;;;;;;5.90;3.90;;;8.40;99.90;;;;;;5088775;28;20039;-78
2021/12/14 00:53:19;;;;;;;6.93;4.53;;;8.50;99.90;;;;;;5090572;28;20044;-79
2021/12/14 00:55:49;;;;;;;12.85;6.10;;;8.50;99.90;;;;;;5091652;28;20044;-80
2021/12/14 00:58:16;;;;;;;7.68;4.35;;;8.50;99.90;;;;;;5078936;28;20044;-79
2021/12/14 01:00:47;;;;;;;9.10;5.25;;;8.60;99.90;;;;;;5101838;28;20494;-79
2021/12/14 01:03:14;;;;;;;5.50;3.92;;;8.50;99.90;;;;;;5082402;28;20362;-78
2021/12/14 01:05:43;;;;;;;10.43;4.40;;;8.50;99.90;;;;;;5083186;28;20039;-79
2021/12/14 01:08:13;;;;;;;7.50;5.15;;;8.50;99.90;;;;;;5076032;28;20043;-78
2021/12/14 01:10:45;;;;;;;10.10;4.45;;;8.50;99.90;;;;;;5072479;28;20466;-80
2021/12/14 01:13:11;;;;;;;7.15;4.60;;;8.50;99.90;;;;;;5083484;28;20040;-80
2021/12/14 01:16:32;;;;;;;10.05;4.10;;;8.50;99.90;;;;;;5055648;28;20044;-80
2021/12/14 01:19:15;;;;;;;6.05;4.28;;;8.50;99.90;;;;;;5059085;28;20072;-79
2021/12/14 01:27:10;;;;;;;7.65;4.03;;;8.40;99.90;;;;;;5090644;28;20054;-79
2021/12/14 01:29:37;;;;;;;4.60;3.80;;;8.50;99.90;;;;;;5091976;28;20201;-77
2021/12/14 01:32:04;;;;;;;7.65;4.68;;;8.50;99.90;;;;;;5084613;28;20052;-80
2021/12/14 01:34:32;;;;;;;8.68;5.25;;;8.50;99.90;;;;;;5091236;28;20083;-78
2021/12/14 01:37:06;;;;;;;9.23;4.35;;;8.50;99.90;;;;;;5077894;28;20056;-80
2021/12/14 01:42:22;;;;;;;7.60;4.55;;;8.40;99.90;;;;;;5091644;28;20067;-80
2021/12/14 01:44:58;;;;;;;9.43;4.80;;;8.40;99.90;;;;;;5091950;28;20044;-78
2021/12/14 01:47:34;;;;;;;6.13;4.40;;;8.40;99.90;;;;;;5090196;28;20339;-81
2021/12/14 01:50:00;;;;;;;9.18;5.55;;;8.50;99.90;;;;;;5079125;28;20584;-80
2021/12/14 01:52:31;;;;;;;8.32;3.97;;;8.50;99.90;;;;;;5077004;28;20041;-79
2021/12/14 01:55:24;;;;;;;8.43;4.88;;;8.50;99.90;;;;;;5091595;28;20527;-78
2021/12/14 01:57:54;;;;;;;9.50;5.43;;;8.40;99.90;;;;;;5093651;28;20060;-80
2021/12/14 02:00:26;;;;;;;7.25;4.70;;;8.40;99.90;;;;;;5094869;28;20048;-79
2021/12/14 02:02:51;;;;;;;8.90;5.35;;;8.40;99.90;;;;;;5083290;28;20049;-81
2021/12/14 02:05:22;;;;;;;6.60;4.53;;;8.40;99.90;;;;;;5089456;28;20074;-77
2021/12/14 02:07:49;;;;;;;7.28;4.18;;;8.50;99.90;;;;;;5094625;28;20074;-79
2021/12/14 02:10:49;;;;;;;11.40;6.32;;;8.50;99.90;;;;;;5094977;28;20047;-80
2021/12/14 02:13:38;;;;;;;10.05;4.78;;;8.40;99.90;;;;;;5052840;28;20049;-79
2021/12/14 02:16:05;;;;;;;9.68;5.43;;;8.40;99.90;;;;;;5085442;28;20414;-79
2021/12/14 02:18:32;;;;;;;8.38;5.80;;;8.40;99.90;;;;;;5093459;28;20114;-82
2021/12/14 02:21:08;;;;;;;8.32;4.22;;;8.40;99.90;;;;;;5094663;28;20051;-78
2021/12/14 02:23:37;;;;;;;12.88;5.40;;;8.40;99.90;;;;;;5072579;28;20038;-81
2021/12/14 02:26:06;;;;;;;12.82;6.97;;;8.40;99.90;;;;;;5095163;28;20486;-80
2021/12/14 02:28:33;;;;;;;7.32;4.68;;;8.40;99.90;;;;;;5083656;28;20071;-79
2021/12/14 02:31:03;;;;;;;12.93;4.97;;;8.40;99.90;;;;;;5103714;28;20081;-80
2021/12/14 02:33:33;;;;;;;10.93;6.97;;;8.40;99.90;;;;;;5085986;28;20044;-80
2021/12/14 02:36:05;;;;;;;11.98;6.38;;;8.40;99.90;;;;;;5095415;28;20048;-79
2021/12/14 02:38:31;;;;;;;7.72;4.60;;;8.40;99.90;;;;;;5085144;28;20120;-79
2021/12/14 02:41:05;;;;;;;12.68;7.97;;;8.40;99.90;;;;;;5072354;28;20463;-81
2021/12/14 02:43:40;;;;;;;10.57;5.00;;;8.40;99.90;;;;;;5089860;28;20047;-78
2021/12/14 02:46:17;;;;;;;5.72;4.53;;;8.40;99.90;;;;;;5092837;28;20097;-80
2021/12/14 02:48:47;;;;;;;7.97;6.18;;;8.30;99.90;;;;;;5092711;28;20487;-78
2021/12/14 02:51:27;;;;;;;12.20;6.28;;;8.30;99.90;;;;;;5088845;28;20072;-81
2021/12/14 02:53:58;;;;;;;10.38;5.35;;;8.30;99.90;;;;;;5077517;28;20037;-79
2021/12/14 02:56:29;;;;;;;8.35;5.53;;;8.30;99.90;;;;;;5098618;28;20093;-78
2021/12/14 02:59:20;;;;;;;12.38;6.97;;;8.20;99.90;;;;;;5075842;28;20097;-78
2021/12/14 03:01:48;;;;;;;14.15;6.57;;;8.20;99.90;;;;;;5086192;28;20048;-78
2021/12/14 03:04:15;;;;;;;9.35;5.57;;;8.20;99.90;;;;;;5080100;28;20470;-78
2021/12/14 03:06:47;;;;;;;;;;;8.20;99.90;;;;;;5094320;28;20052;-80
2021/12/14 03:09:59;;;;;;;14.07;5.55;;;8.20;99.90;;;;;;5080533;28;19916;-80
2021/12/14 03:12:20;;;;;;;13.50;7.18;;;8.20;99.90;;;;;;5084910;28;20064;-79
2021/12/14 03:15:21;;;;;;;7.43;5.35;;;8.20;99.90;;;;;;5093730;28;20067;-82
2021/12/14 03:17:51;;;;;;;14.27;8.45;;;8.30;99.90;;;;;;5075544;28;20040;-79
2021/12/14 03:20:40;;;;;;;10.88;7.57;;;8.20;99.90;;;;;;5076657;28;20084;-78
2021/12/14 03:23:10;;;;;;;12.85;6.20;;;8.20;99.90;;;;;;5088399;28;20478;-80
2021/12/14 03:25:41;;;;;;;11.98;7.00;;;8.20;99.90;;;;;;5073393;28;20641;-80
2021/12/14 03:28:09;;;;;;;13.98;8.68;;;8.20;99.90;;;;;;5081745;28;20044;-81
2021/12/14 03:31:00;;;;;;;13.65;8.07;;;8.20;99.90;;;;;;5093731;28;20123;-78
2021/12/14 03:33:30;;;;;;;11.88;6.85;;;8.20;99.90;;;;;;5089370;28;20392;-79
2021/12/14 03:36:07;;;;;;;8.52;6.00;;;8.20;99.90;;;;;;5092301;28;20040;-80
2021/12/14 03:38:42;;;;;;;13.45;8.95;;;8.10;99.90;;;;;;5080986;28;20046;-79
2021/12/14 03:41:21;;;;;;;15.10;7.25;;;8.10;99.90;;;;;;5074408;28;20836;-79
2021/12/14 03:44:08;;;;;;;15.68;7.47;;;8.20;99.90;;;;;;5081424;28;20067;-78
2021/12/14 03:46:46;;;;;;;10.73;5.35;;;8.10;99.90;;;;;;5102148;28;20045;-79
2021/12/14 03:49:12;;;;;;;6.78;4.82;;;8.20;99.90;;;;;;5075392;28;20032;-79
2021/12/14 03:51:40;;;;;;;11.75;7.63;;;8.20;99.90;;;;;;5092781;28;20042;-79
2021/12/14 03:54:06;;;;;;;12.13;7.32;;;8.20;99.90;;;;;;5082514;28;20123;-79
2021/12/14 03:56:31;;;;;;;;;;;8.20;99.90;;;;;;5076179;28;20086;-79
2021/12/14 03:58:57;;;;;;;11.38;7.78;;;8.20;99.90;;;;;;5083559;28;19947;-79
2021/12/14 04:01:31;;;;;;;11.70;8.57;;;8.20;99.90;;;;;;5090426;28;20089;-80
2021/12/14 04:04:09;;;;;;;12.00;7.55;;;8.20;99.90;;;;;;5080567;28;20052;-79
2021/12/14 04:06:35;;;;;;;11.20;6.90;;;8.20;99.90;;;;;;5090057;28;20629;-78
2021/12/14 04:09:02;;;;;;;18.30;8.20;;;8.20;99.90;;;;;;5078155;28;20089;-79
2021/12/14 04:11:28;;;;;;;13.18;7.88;;;8.20;99.90;;;;;;5092385;28;20386;-79
2021/12/14 04:13:54;;;;;;;9.93;6.03;;;8.20;99.90;;;;;;5083664;28;20394;-79
2021/12/14 04:16:23;;;;;;;14.73;7.78;;;8.30;99.90;;;;;;5055266;28;20048;-79
2021/12/14 04:18:49;;;;;;;14.90;7.47;;;8.20;99.90;;;;;;5079134;28;20048;-79
2021/12/14 04:21:15;;;;;;;;;;;8.20;99.90;;;;;;5076339;28;20039;-80
2021/12/14 04:23:44;;;;;;;9.23;6.63;;;8.20;99.90;;;;;;5081978;28;20400;-80
2021/12/14 04:26:12;;;;;;;17.20;9.05;;;8.20;99.90;;;;;;5092206;28;20469;-78
2021/12/14 04:28:54;;;;;;;11.80;7.40;;;8.20;99.90;;;;;;5091025;28;20048;-80
2021/12/14 04:31:21;;;;;;;10.23;7.07;;;8.20;99.90;;;;;;5090174;28;20135;-80
2021/12/14 04:33:48;;;;;;;18.08;8.38;;;8.20;99.90;;;;;;5075035;28;20048;-80
2021/12/14 04:36:19;;;;;;;8.05;6.00;;;8.20;99.90;;;;;;5081894;28;20044;-81
2021/12/14 04:38:53;;;;;;;11.45;7.43;;;8.20;99.90;;;;;;5073724;28;20040;-77
2021/12/14 04:52:24;;;;;;;11.48;7.93;;;8.10;99.90;;;;;;5088407;28;20470;-78
2021/12/14 04:55:04;;;;;;;13.02;8.05;;;7.30;99.90;;;;;;5091805;28;20075;-78
2021/12/14 04:57:45;;;;;;;13.27;7.72;;;8.00;99.90;;;;;;5083558;28;20040;-78
2021/12/14 05:00:34;;;;;;;11.57;6.50;;;8.00;99.90;;;;;;5092011;28;20407;-80
2021/12/14 05:03:01;;;;;;;10.77;8.23;;;8.00;99.90;;;;;;5092056;28;20068;-78
2021/12/14 05:05:32;;;;;;;14.20;6.93;;;8.00;99.90;;;;;;5092730;28;20052;-78
2021/12/14 05:10:59;;;;;;;14.88;6.60;;;7.90;99.90;;;;;;5090327;28;20402;-80
2021/12/14 05:13:47;;;;;;;7.95;6.45;;;8.00;99.90;;;;;;5085215;28;20088;-79
2021/12/14 05:16:25;;;;;;;17.63;9.60;;;7.90;99.90;;;;;;5088679;28;20486;-79
2021/12/14 05:18:59;;;;;;;12.55;8.02;;;7.90;99.90;;;;;;5081369;28;20079;-80
2021/12/14 05:21:33;;;;;;;12.70;8.57;;;7.90;99.90;;;;;;5081428;28;20378;-80
2021/12/14 05:24:01;;;;;;;13.43;7.93;;;7.90;99.90;;;;;;5081717;28;20067;-81
2021/12/14 05:26:27;;;;;;;17.05;9.57;;;7.90;99.90;;;;;;5071121;28;20098;-80
2021/12/14 05:28:53;;;;;;;13.45;7.25;;;7.90;99.90;;;;;;5071278;28;20036;-78
2021/12/14 05:31:19;;;;;;;17.42;11.02;;;8.00;99.90;;;;;;5083022;28;20137;-78
2021/12/14 05:33:45;;;;;;;9.23;5.80;;;8.00;99.90;;;;;;5080393;28;20040;-79
2021/12/14 05:36:16;;;;;;;18.15;8.85;;;8.00;99.90;;;;;;5081650;28;20128;-78
2021/12/14 05:44:20;;;;;;;13.90;8.82;;;8.00;99.90;;;;;;5077363;28;20055;-79
2021/12/14 05:46:51;;;;;;;17.95;8.02;;;7.90;99.90;;;;;;5076248;28;20048;-79
2021/12/14 05:49:19;;;;;;;20.63;10.38;;;7.90;99.90;;;;;;5084376;28;20051;-80
2021/12/14 05:51:46;;;;;;;11.05;5.93;;;8.30;99.90;;;;;;5088189;28;20300;-81
2021/12/14 05:54:18;;;;;;;11.25;7.88;;;7.90;99.90;;;;;;5078956;28;20408;-79
2021/12/14 05:56:44;;;;;;;13.35;10.75;;;7.90;99.90;;;;;;5072286;28;20132;-82
2021/12/14 05:59:10;;;;;;;17.92;9.90;;;7.90;99.90;;;;;;5089195;28;20079;-81
2021/12/14 06:01:36;;;;;;;12.25;8.18;;;7.90;99.90;;;;;;5069542;28;20044;-81
2021/12/14 06:04:05;;;;;;;10.80;7.30;;;7.90;99.90;;;;;;5102739;28;20055;-81
2021/12/14 06:06:39;;;;;;;14.95;7.68;;;7.90;99.90;;;;;;5104751;28;20056;-80
2021/12/14 06:09:12;;;;;;;24.23;8.50;;;7.90;99.90;;;;;;5051804;28;20032;-82
2021/12/14 06:11:38;;;;;;;16.08;9.95;;;7.90;99.90;;;;;;5066892;28;20044;-81
2021/12/14 06:14:04;;;;;;;;;;;7.90;99.90;;;;;;5081151;28;20118;-79
2021/12/14 06:16:33;;;;;;;9.67;7.10;;;7.90;99.90;;;;;;5078247;28;19924;-78
2021/12/14 06:19:20;;;;;;;15.10;8.18;;;8.00;99.90;;;;;;5067656;28;20047;-77
2021/12/14 06:22:06;;;;;;;9.75;5.82;;;8.00;99.90;;;;;;5077061;28;20132;-79
2021/12/14 06:24:35;;;;;;;11.83;8.43;;;8.00;99.90;;;;;;5075221;28;20037;-81
2021/12/14 06:27:05;;;;;;;14.23;8.90;;;8.00;99.90;;;;;;5081058;28;20048;-81
2021/12/14 06:29:45;;;;;;;14.68;8.60;;;8.00;99.90;;;;;;5067774;28;20147;-80
2021/12/14 06:32:15;;;;;;;16.95;10.05;;;8.00;99.90;;;;;;5076876;28;20047;-77
2021/12/14 06:34:44;;;;;;;12.85;6.70;;;8.00;99.90;;;;;;5058688;28;20048;-77
2021/12/14 06:37:41;;;;;;;15.70;9.77;;;8.00;99.90;;;;;;5071893;28;20056;-77
2021/12/14 06:40:15;;;;;;;15.82;8.77;;;8.00;99.90;;;;;;5093353;28;20063;-78
2021/12/14 06:43:16;;;;;;;13.68;8.23;;;8.00;99.90;;;;;;5088786;28;20087;-79
2021/12/14 06:45:46;;;;;;;17.20;8.10;;;8.10;99.90;;;;;;5043254;28;20125;-78
2021/12/14 06:48:22;;;;;;;9.38;7.93;;;8.10;99.90;;;;;;5086131;28;20059;-79
2021/12/14 06:50:53;;;;;;;14.43;8.93;;;8.10;99.90;;;;;;5060623;28;20159;-76
2021/12/14 06:53:20;;;;;;;14.57;9.18;;;8.00;99.90;;;;;;5087427;28;20297;-83
2021/12/14 06:55:48;;;;;;;12.18;8.73;;;8.10;99.90;;;;;;5073727;28;20194;-78
2021/12/14 06:58:21;;;;;;;14.30;8.27;;;8.10;99.90;;;;;;5088532;28;20051;-81
2021/12/14 07:01:05;;;;;;;14.82;8.63;;;8.10;99.90;;;;;;5072047;28;20386;-77
2021/12/14 07:03:45;;;;;;;19.05;10.20;;;8.00;99.90;;;;;;5059998;28;20123;-80
2021/12/14 07:06:21;;;;;;;16.48;8.13;;;8.10;99.90;;;;;;5082312;28;20052;-79
2021/12/14 07:08:47;;;;;;;11.70;7.90;;;8.10;99.90;;;;;;5065140;28;20045;-77
2021/12/14 07:11:25;;;;;;;14.57;10.02;;;8.10;99.90;;;;;;5070229;28;20086;-79
2021/12/14 07:13:52;;;;;;;13.60;9.13;;;8.10;99.90;;;;;;5103844;28;20044;-79
2021/12/14 07:16:31;;;;;;;15.55;8.75;;;8.00;99.90;;;;;;5075773;28;20043;-79
2021/12/14 07:19:01;;;;;;;19.23;8.60;;;8.00;99.90;;;;;;5085513;28;20390;-78
2021/12/14 07:21:42;;;;;;;16.05;9.73;;;8.70;99.90;;;;;;5078257;28;20044;-79
2021/12/14 07:24:23;;;;;;;15.20;8.77;;;8.00;99.90;;;;;;5068202;28;20089;-80
2021/12/14 07:26:51;;;;;;;17.80;9.75;;;8.00;99.90;;;;;;5074173;28;20044;-78
2021/12/14 07:29:23;;;;;;;18.45;11.35;;;8.00;99.90;;;;;;5078394;28;20045;-77
2021/12/14 07:31:49;;;;;;;10.63;7.60;;;8.00;99.90;;;;;;5077879;28;20662;-77
2021/12/14 07:34:15;;;;;;;21.48;10.20;;;8.00;99.90;;;;;;5075429;28;20651;-76
2021/12/14 07:36:41;;;;;;;16.25;9.27;;;8.00;99.90;;;;;;5069866;28;20045;-76
2021/12/14 07:39:14;;;;;;;22.08;10.63;;;8.00;99.90;;;;;;5075615;28;20394;-78
2021/12/14 07:41:46;;;;;;;13.52;8.82;;;8.00;99.90;;;;;;5087665;28;20066;-77
2021/12/14 07:44:17;;;;;;;19.05;11.45;;;8.00;99.90;;;;;;5085035;28;20040;-77
2021/12/14 07:47:09;;;;;;;16.00;9.45;;;7.90;99.90;;;;;;5076721;28;20048;-78
2021/12/14 07:49:53;;;;;;;17.92;8.48;;;7.90;99.90;;;;;;5080089;28;20028;-76
2021/12/14 07:52:22;;;;;;;18.38;8.55;;;7.90;99.90;;;;;;5086568;28;20074;-75
2021/12/14 07:54:59;;;;;;;23.70;13.00;;;8.00;99.90;;;;;;5085926;28;20048;-81
2021/12/14 07:57:33;;;;;;;14.55;7.85;;;8.00;99.90;;;;;;5070853;28;20101;-78
2021/12/14 08:00:12;;;;;;;13.65;10.05;;;8.40;99.90;;;;;;5076142;28;20060;-78
2021/12/14 08:03:00;;;;;;;15.55;8.63;;;7.90;99.90;;;;;;5048368;28;20104;-79
2021/12/14 08:05:43;;;;;;;27.65;13.80;;;7.90;99.90;;;;;;5098434;28;20094;-76
2021/12/14 08:08:18;;;;;;;21.13;10.98;;;8.00;99.90;;;;;;5067130;28;20075;-79
2021/12/14 08:11:17;;;;;;;21.52;12.63;;;7.90;99.90;;;;;;5072666;28;20040;-79
2021/12/14 08:13:58;;;;;;;25.38;13.10;;;7.90;99.90;;;;;;5072331;28;20047;-77
2021/12/14 08:16:24;;;;;;;18.38;11.07;;;8.00;99.90;;;;;;5071835;28;20133;-76
2021/12/14 08:18:50;;;;;;;19.63;10.02;;;8.00;99.90;;;;;;5062470;28;20052;-76
2021/12/14 08:21:23;;;;;;;20.67;11.55;;;8.00;99.90;;;;;;5075900;28;20132;-77
2021/12/14 08:24:04;;;;;;;25.10;11.18;;;8.10;99.90;;;;;;5070809;28;20048;-77
2021/12/14 08:26:35;;;;;;;18.77;10.30;;;8.00;99.90;;;;;;5086400;28;20754;-76
2021/12/14 08:29:04;;;;;;;16.48;10.07;;;8.00;99.90;;;;;;5074127;28;20055;-78
2021/12/14 08:31:32;;;;;;;16.95;9.32;;;8.00;99.90;;;;;;5077694;28;20055;-76
2021/12/14 08:34:01;;;;;;;14.43;11.18;;;8.00;99.90;;;;;;5075549;28;20043;-76
2021/12/14 08:36:43;;;;;;;21.90;10.23;;;8.00;99.90;;;;;;5102359;28;20036;-77
2021/12/14 08:39:20;;;;;;;24.52;9.75;;;8.10;99.90;;;;;;5077637;28;20040;-78
2021/12/14 08:41:56;;;;;;;23.17;10.30;;;8.10;99.90;;;;;;5070280;28;20063;-79
2021/12/14 08:44:38;;;;;;;20.23;10.30;;;8.10;99.90;;;;;;5079171;28;20040;-77
2021/12/14 08:47:08;;;;;;;20.38;10.68;;;8.10;99.90;;;;;;5075403;28;20275;-77
2021/12/14 08:49:34;;;;;;;14.63;9.07;;;8.10;99.90;;;;;;5077103;28;20131;-76
2021/12/14 08:52:01;;;;;;;18.65;9.52;;;8.10;99.90;;;;;;5103032;28;20071;-77
2021/12/14 08:54:29;;;;;;;16.85;9.65;;;8.10;99.90;;;;;;5083214;28;20462;-78
2021/12/14 08:57:07;;;;;;;36.97;15.57;;;8.10;99.90;;;;;;5075963;28;20093;-75
2021/12/14 08:59:33;;;;;;;23.58;11.07;;;8.20;99.90;;;;;;5078482;28;20051;-76
2021/12/14 09:02:00;;;;;;;18.98;11.32;;;8.20;99.90;;;;;;5061848;28;20079;-79
2021/12/14 09:04:37;;;;;;;15.00;9.68;;;8.20;99.90;;;;;;5070195;28;20063;-79
2021/12/14 09:07:10;;;;;;;14.30;7.78;;;8.20;99.90;;;;;;5076582;28;20429;-76
2021/12/14 09:09:37;;;;;;;18.98;12.80;;;8.20;99.90;;;;;;5072995;28;20486;-79
2021/12/14 09:12:11;;;;;;;18.95;9.90;;;8.20;99.90;;;;;;5063340;28;20075;-78
2021/12/14 09:14:38;;;;;;;19.90;10.00;;;8.20;99.90;;;;;;5073919;28;20121;-78
2021/12/14 09:17:09;;;;;;;15.13;8.05;;;8.20;99.90;;;;;;5047567;28;20040;-80
2021/12/14 09:19:46;;;;;;;25.13;10.20;;;8.20;99.90;;;;;;5074144;28;20047;-76
2021/12/14 09:22:27;;;;;;;20.67;9.88;;;8.30;99.90;;;;;;5084699;28;20036;-76
2021/12/14 09:24:54;;;;;;;15.23;7.45;;;8.30;99.90;;;;;;5075886;28;20040;-77
2021/12/14 09:27:24;;;;;;;17.25;9.40;;;8.30;99.90;;;;;;5083763;28;20249;-76
2021/12/14 09:29:51;;;;;;;21.17;10.02;;;8.40;99.90;;;;;;5086602;28;20140;-77
2021/12/14 09:32:24;;;;;;;11.30;7.20;;;8.50;99.90;;;;;;5085623;28;20051;-79
2021/12/14 09:34:50;;;;;;;20.98;10.50;;;8.30;99.90;;;;;;5064111;28;20665;-78
2021/12/14 09:37:18;;;;;;;15.23;10.18;;;8.30;99.90;;;;;;5067062;28;20040;-77
2021/12/14 09:39:48;;;;;;;19.85;10.63;;;8.40;99.90;;;;;;5087226;28;20059;-78
2021/12/14 09:42:22;;;;;;;11.50;8.50;;;8.40;99.90;;;;;;5068903;28;20089;-75
2021/12/14 09:44:51;;;;;;;14.27;8.15;;;9.00;99.90;;;;;;5078939;28;20081;-77
2021/12/14 09:47:21;;;;;;;22.35;11.95;;;8.40;99.90;;;;;;5078935;28;20649;-76
2021/12/14 09:49:49;;;;;;;12.80;7.32;;;8.50;99.90;;;;;;5083979;28;20036;-79
2021/12/14 09:52:24;;;;;;;20.52;11.82;;;8.50;99.90;;;;;;5078063;28;20465;-77
2021/12/14 09:54:53;;;;;;;27.50;9.88;;;9.30;99.90;;;;;;5080774;28;20074;-76
2021/12/14 09:57:30;;;;;;;;;;;8.60;99.90;;;;;;5071137;28;20114;-78
2021/12/14 09:59:58;;;;;;;14.07;8.32;;;8.60;99.90;;;;;;5080138;28;19920;-78
2021/12/14 10:02:34;;;;;;;15.23;8.32;;;8.60;99.90;;;;;;5077644;28;20086;-81
2021/12/14 10:05:09;;;;;;;15.80;8.27;;;8.50;99.90;;;;;;5079164;28;20127;-80
2021/12/14 10:07:35;;;;;;;23.00;9.80;;;8.50;99.90;;;;;;5085401;28;20501;-79
2021/12/14 10:10:03;;;;;;;20.75;11.80;;;8.60;99.90;;;;;;5082167;28;20073;-79
2021/12/14 10:12:52;;;;;;;19.00;10.10;;;8.60;99.90;;;;;;5072251;28;20757;-77
2021/12/14 10:15:47;;;;;;;23.75;11.32;;;8.50;99.90;;;;;;5060898;28;20036;-76
2021/12/14 10:18:24;;;;;;;19.77;11.88;;;8.60;99.90;;;;;;5074425;28;20044;-78
2021/12/14 10:21:08;;;;;;;21.35;10.15;;;8.50;99.90;;;;;;5082637;28;20426;-79
2021/12/14 10:23:35;;;;;;;13.70;8.25;;;8.50;99.90;;;;;;5091011;28;20043;-79
2021/12/14 10:26:02;;;;;;;21.75;10.45;;;8.50;99.90;;;;;;5073641;28;20090;-77
2021/12/14 10:28:29;;;;;;;21.63;12.88;;;8.50;99.90;;;;;;5086302;28;20054;-77
2021/12/14 10:31:07;;;;;;;20.90;11.30;;;8.50;99.90;;;;;;5084560;28;20067;-76
2021/12/14 10:33:34;;;;;;;24.85;9.68;;;8.50;99.90;;;;;;5085049;28;20666;-76
2021/12/14 10:36:13;;;;;;;15.23;10.55;;;8.50;99.90;;;;;;5071725;28;20131;-76
2021/12/14 10:39:01;;;;;;;15.35;8.13;;;8.50;99.90;;;;;;5069195;28;20074;-76
2021/12/14 10:44:10;;;;;;;23.35;10.80;;;8.50;99.90;;;;;;5076950;28;20041;-76
2021/12/14 10:46:45;;;;;;;19.98;9.15;;;8.50;99.90;;;;;;5067238;28;20040;-77
2021/12/14 10:49:14;;;;;;;14.23;8.73;;;8.50;99.90;;;;;;5066570;28;20405;-78
2021/12/14 10:51:42;;;;;;;21.65;9.85;;;8.50;99.90;;;;;;5088380;28;20082;-76
2021/12/14 10:54:12;;;;;;;18.90;9.43;;;8.50;99.90;;;;;;5069952;28;20361;-75
2021/12/14 10:56:47;;;;;;;24.08;11.05;;;8.60;99.90;;;;;;5087651;28;20477;-78
2021/12/14 10:59:16;;;;;;;16.35;10.05;;;8.50;99.90;;;;;;5082868;28;20079;-77
2021/12/14 11:01:49;;;;;;;12.70;7.95;;;8.60;99.90;;;;;;5085292;28;20084;-76
2021/12/14 11:04:16;;;;;;;12.98;8.68;;;8.60;99.90;;;;;;5079632;28;20051;-79
2021/12/14 11:06:46;;;;;;;15.95;8.80;;;8.60;99.90;;;;;;5062306;28;20044;-76
2021/12/14 11:12:09;;;;;;;19.52;10.00;;;8.70;99.90;;;;;;5073341;28;20093;-77
2021/12/14 11:14:37;;;;;;;16.15;9.00;;;8.70;99.90;;;;;;5073749;28;20488;-77
2021/12/14 11:20:13;;;;;;;16.73;9.25;;;8.70;99.90;;;;;;5071317;28;20382;-75
2021/12/14 11:22:50;;;;;;;20.85;11.32;;;8.70;99.90;;;;;;5100136;28;20044;-80
2021/12/14 11:25:25;;;;;;;12.20;7.70;;;8.70;99.90;;;;;;5056486;28;20127;-78
2021/12/14 11:28:01;;;;;;;14.52;9.50;;;8.70;99.90;;;;;;5089668;28;20052;-77
2021/12/14 11:30:43;;;;;;;12.90;6.40;;;8.70;99.90;;;;;;5079517;28;20068;-78
2021/12/14 11:33:16;;;;;;;11.00;8.18;;;8.80;99.90;;;;;;5079266;28;20122;-78
2021/12/14 11:36:18;;;;;;;15.05;8.23;;;8.80;99.90;;;;;;5084519;28;20517;-77
2021/12/14 11:39:28;;;;;;;23.02;10.50;;;8.80;99.90;;;;;;5077468;28;20080;-77
2021/12/14 11:41:55;;;;;;;17.85;8.63;;;8.80;99.90;;;;;;5086545;28;20048;-78
2021/12/14 11:44:26;;;;;;;12.57;7.25;;;8.80;99.90;;;;;;5072462;28;20086;-77
2021/12/14 11:47:33;;;;;;;12.18;8.15;;;8.80;99.90;;;;;;5101412;27;20045;-77
2021/12/14 11:50:18;;;;;;;18.83;8.85;;;8.80;99.90;;;;;;5083564;28;20543;-77
2021/12/14 11:52:52;;;;;;;13.30;6.40;;;8.80;99.90;;;;;;5064098;28;20131;-75
2021/12/14 11:55:24;;;;;;;15.55;7.70;;;8.80;99.90;;;;;;5073064;28;20072;-77
2021/12/14 11:58:18;;;;;;;13.30;6.97;;;8.80;99.90;;;;;;5080278;28;20097;-78
2021/12/14 12:01:01;;;;;;;17.40;9.80;;;8.80;99.90;;;;;;5080900;27;20131;-76
2021/12/14 12:03:36;;;;;;;21.05;9.38;;;8.80;99.90;;;;;;5079864;28;20036;-76
2021/12/14 12:06:10;;;;;;;17.98;9.68;;;8.80;99.90;;;;;;5087873;28;20091;-78
2021/12/14 12:11:38;;;;;;;15.60;7.43;;;8.80;99.90;;;;;;5079356;28;20075;-78
2021/12/14 12:14:19;;;;;;;11.20;6.55;;;8.80;99.90;;;;;;5066063;28;20118;-78
2021/12/14 12:16:45;;;;;;;13.70;6.75;;;8.80;99.90;;;;;;5083952;28;20056;-80
2021/12/14 12:19:14;;;;;;;13.57;6.25;;;8.80;99.90;;;;;;5067972;28;20085;-79
2021/12/14 12:21:43;;;;;;;10.57;7.03;;;8.80;99.90;;;;;;5083471;28;20118;-83
2021/12/14 12:24:32;;;;;;;13.48;5.00;;;8.80;99.90;;;;;;5059282;28;20036;-80
2021/12/14 12:27:30;;;;;;;9.25;5.70;;;8.80;99.90;;;;;;5075457;28;20052;-81
2021/12/14 12:30:13;;;;;;;10.30;7.00;;;8.90;99.90;;;;;;5057048;28;20442;-79
2021/12/14 12:32:39;;;;;;;13.18;5.18;;;8.90;99.90;;;;;;5084363;28;20759;-77
2021/12/14 12:35:20;;;;;;;;;;;9.10;99.90;;;;;;5087164;28;20729;-78
2021/12/14 12:37:46;;;;;;;12.02;6.07;;;8.90;99.90;;;;;;5078122;28;19920;-77
2021/12/14 12:40:17;;;;;;;8.43;5.32;;;8.90;99.90;;;;;;5077079;28;20080;-78
2021/12/14 12:42:44;;;;;;;12.55;6.80;;;8.90;99.90;;;;;;5086538;28;20048;-75
2021/12/14 12:45:33;;;;;;;8.65;4.32;;;8.90;99.90;;;;;;5083864;28;20046;-81
2021/12/14 12:48:01;;;;;;;6.95;4.65;;;8.90;99.90;;;;;;5071844;28;20048;-78
2021/12/14 12:50:28;;;;;;;8.18;5.47;;;8.90;99.90;;;;;;5060270;28;20044;-79
2021/12/14 12:52:54;;;;;;;12.57;5.32;;;9.90;99.90;;;;;;5092528;28;20052;-78
2021/12/14 12:55:30;;;;;;;7.13;3.33;;;8.90;99.90;;;;;;5098231;28;20075;-78
2021/12/14 12:58:12;;;;;;;6.07;4.15;;;8.90;99.90;;;;;;5086565;28;20678;-76
2021/12/14 13:00:43;;;;;;;6.22;4.07;;;8.90;99.90;;;;;;5068818;28;20087;-79
2021/12/14 13:03:18;;;;;;;6.60;5.55;;;9.00;99.90;;;;;;5074411;28;20063;-78
2021/12/14 13:05:53;;;;;;;6.30;3.60;;;9.00;99.90;;;;;;5090806;28;20121;-76
2021/12/14 13:08:39;;;;;;;12.88;6.22;;;9.00;99.90;;;;;;5083908;28;20467;-75
2021/12/14 13:11:27;;;;;;;6.60;5.35;;;9.00;99.90;;;;;;5076734;28;20405;-79
2021/12/14 13:14:19;;;;;;;7.03;4.70;;;9.10;99.90;;;;;;5067829;28;20109;-80
2021/12/14 13:16:50;;;;;;;10.00;5.80;;;9.10;99.90;;;;;;5075707;28;20136;-77
2021/12/14 13:19:29;;;;;;;14.63;4.70;;;9.10;99.90;;;;;;5072917;28;20047;-78
2021/12/14 13:21:59;;;;;;;10.23;4.43;;;9.10;99.90;;;;;;5069218;28;20064;-77
2021/12/14 13:24:35;;;;;;;7.43;3.88;;;9.10;99.90;;;;;;5077238;28;20054;-79
2021/12/14 13:27:22;;;;;;;7.25;4.80;;;9.10;99.90;;;;;;5077164;28;20036;-78
2021/12/14 13:29:54;;;;;;;6.63;4.03;;;9.10;99.90;;;;;;5076521;28;20052;-80
2021/12/14 13:32:30;;;;;;;6.38;3.85;;;9.10;99.90;;;;;;5089436;28;20413;-77
2021/12/14 13:35:07;;;;;;;9.13;5.25;;;9.20;99.90;;;;;;5077335;28;20136;-81
2021/12/14 13:37:38;;;;;;;7.13;4.30;;;9.20;99.90;;;;;;5067465;28;20093;-78
2021/12/14 13:40:09;;;;;;;5.07;3.35;;;9.20;99.90;;;;;;5069026;28;20051;-78
2021/12/14 13:42:40;;;;;;;5.93;2.97;;;9.20;99.90;;;;;;5083338;28;20047;-80
2021/12/14 13:45:12;;;;;;;9.90;3.95;;;9.20;99.90;;;;;;5066034;28;20052;-78
2021/12/14 13:47:38;;;;;;;7.35;3.33;;;9.20;99.90;;;;;;5077021;28;20048;-81
2021/12/14 13:50:06;;;;;;;;;;;9.30;99.90;;;;;;5078224;28;20036;-78
2021/12/14 13:52:32;;;;;;;13.07;5.03;;;9.20;99.90;;;;;;5070601;28;19923;-79
2021/12/14 13:55:19;;;;;;;7.03;4.90;;;9.20;99.90;;;;;;5073319;28;20052;-80
2021/12/14 13:58:08;;;;;;;6.63;2.87;;;9.20;99.90;;;;;;5055275;28;20051;-82
2021/12/14 14:00:51;;;;;;;7.40;3.65;;;9.20;99.90;;;;;;5070485;28;20069;-78
2021/12/14 14:03:22;;;;;;;6.55;3.83;;;9.20;99.90;;;;;;5077640;28;20046;-79
2021/12/14 14:05:49;;;;;;;6.88;4.57;;;9.20;99.90;;;;;;5079845;28;20036;-78